ADDS METAR Data INFO
IDs: Format: Raw Decoded Include TAF

Data at: 1215 UTC 22 Feb 2018

KOMN 221150Z 00000KT 4SM BR SKC 17/17 A3040 RMK FIRST
KOMN 212350Z 11010KT 10SM SKC 24/19 A3038 RMK LAST
KOMN 212250Z 11010KT 10SM SKC 24/19 A3037
KOMN 212150Z 11010G15KT 10SM SKC 24/19 A3036
KOMN 212050Z 11010G18KT 10SM SCT024 25/20 A3036
KOMN 211950Z 13010G18KT 10SM SCT024 25/19 A3037
KOMN 211850Z 13010G18KT 10SM SCT024 26/20 A3039
KOMN 211750Z 13012G18KT 10SM SCT023 25/20 A3040
KOMN 211650Z 13012G18KT 10SM SCT023 25/20 A3042
KOMN 211550Z 14012G18KT 10SM SCT015 25/19 A3044
KOMN 211450Z 14008G16KT 10SM SCT015 25/20 A3043
KOMN 211350Z 12006KT 10SM SCT011 23/22 A3042
KOMN 211250Z 00000KT 10SM SKC 21/21 A3041